sensor_id;sensor_type;location;lat;lon;timestamp;temperature;humidity
20182;DHT22;10250;50.756;6.172;2022-08-30T00:01:36;16.00;99.90
20182;DHT22;10250;50.756;6.172;2022-08-30T00:03:43;16.00;99.90
20182;DHT22;10250;50.756;6.172;2022-08-30T00:05:47;16.00;99.90
20182;DHT22;10250;50.756;6.172;2022-08-30T00:07:48;16.00;99.90
20182;DHT22;10250;50.756;6.172;2022-08-30T00:09:49;15.90;99.90
20182;DHT22;10250;50.756;6.172;2022-08-30T00:11:50;15.80;99.90
20182;DHT22;10250;50.756;6.172;2022-08-30T00:13:53;15.70;99.90
20182;DHT22;10250;50.756;6.172;2022-08-30T00:15:54;15.70;99.90
20182;DHT22;10250;50.756;6.172;2022-08-30T00:17:54;15.60;99.90
20182;DHT22;10250;50.756;6.172;2022-08-30T00:19:55;15.50;99.90
20182;DHT22;10250;50.756;6.172;2022-08-30T00:21:55;15.50;99.90
20182;DHT22;10250;50.756;6.172;2022-08-30T00:23:56;15.50;99.90
20182;DHT22;10250;50.756;6.172;2022-08-30T00:25:57;15.50;99.90
20182;DHT22;10250;50.756;6.172;2022-08-30T00:27:58;15.40;99.90
20182;DHT22;10250;50.756;6.172;2022-08-30T00:29:59;15.40;99.90
20182;DHT22;10250;50.756;6.172;2022-08-30T00:31:59;15.40;99.90
20182;DHT22;10250;50.756;6.172;2022-08-30T00:34:02;15.40;99.90
20182;DHT22;10250;50.756;6.172;2022-08-30T00:36:02;15.30;99.90
20182;DHT22;10250;50.756;6.172;2022-08-30T00:38:03;15.10;99.90
20182;DHT22;10250;50.756;6.172;2022-08-30T00:40:05;15.10;99.90
20182;DHT22;10250;50.756;6.172;2022-08-30T00:42:07;15.00;99.90
20182;DHT22;10250;50.756;6.172;2022-08-30T00:44:07;15.00;99.90
20182;DHT22;10250;50.756;6.172;2022-08-30T00:46:09;15.00;99.90
20182;DHT22;10250;50.756;6.172;2022-08-30T00:48:10;14.90;99.90
20182;DHT22;10250;50.756;6.172;2022-08-30T00:50:12;14.80;99.90
20182;DHT22;10250;50.756;6.172;2022-08-30T00:52:14;14.80;99.90
20182;DHT22;10250;50.756;6.172;2022-08-30T00:54:17;14.70;99.90
20182;DHT22;10250;50.756;6.172;2022-08-30T00:56:18;14.70;99.90
20182;DHT22;10250;50.756;6.172;2022-08-30T00:58:21;14.70;99.90
20182;DHT22;10250;50.756;6.172;2022-08-30T01:00:24;14.70;99.90
20182;DHT22;10250;50.756;6.172;2022-08-30T01:02:25;14.60;99.90
20182;DHT22;10250;50.756;6.172;2022-08-30T01:04:27;14.70;99.90
20182;DHT22;10250;50.756;6.172;2022-08-30T01:06:29;14.70;99.90
20182;DHT22;10250;50.756;6.172;2022-08-30T01:08:30;14.70;99.90
20182;DHT22;10250;50.756;6.172;2022-08-30T01:10:33;14.70;99.90
20182;DHT22;10250;50.756;6.172;2022-08-30T01:12:35;14.60;99.90
20182;DHT22;10250;50.756;6.172;2022-08-30T01:14:36;14.50;99.90
20182;DHT22;10250;50.756;6.172;2022-08-30T01:16:38;14.60;99.90
20182;DHT22;10250;50.756;6.172;2022-08-30T01:18:39;14.70;99.90
20182;DHT22;10250;50.756;6.172;2022-08-30T01:20:55;14.60;99.90
20182;DHT22;10250;50.756;6.172;2022-08-30T01:23:12;14.70;99.90
20182;DHT22;10250;50.756;6.172;2022-08-30T01:25:23;14.70;99.90
20182;DHT22;10250;50.756;6.172;2022-08-30T01:27:26;14.70;99.90
20182;DHT22;10250;50.756;6.172;2022-08-30T01:29:27;14.60;99.90
20182;DHT22;10250;50.756;6.172;2022-08-30T01:31:28;14.60;99.90
20182;DHT22;10250;50.756;6.172;2022-08-30T01:33:29;14.50;99.90
20182;DHT22;10250;50.756;6.172;2022-08-30T01:35:37;14.50;99.90
20182;DHT22;10250;50.756;6.172;2022-08-30T01:37:44;14.50;99.90
20182;DHT22;10250;50.756;6.172;2022-08-30T01:39:45;14.40;99.90
20182;DHT22;10250;50.756;6.172;2022-08-30T01:41:46;14.50;99.90
20182;DHT22;10250;50.756;6.172;2022-08-30T01:43:48;14.50;99.90
20182;DHT22;10250;50.756;6.172;2022-08-30T01:45:49;14.50;99.90
20182;DHT22;10250;50.756;6.172;2022-08-30T01:47:50;14.40;99.90
20182;DHT22;10250;50.756;6.172;2022-08-30T01:49:50;14.30;99.90
20182;DHT22;10250;50.756;6.172;2022-08-30T01:51:51;14.40;99.90
20182;DHT22;10250;50.756;6.172;2022-08-30T01:53:52;14.30;99.90
20182;DHT22;10250;50.756;6.172;2022-08-30T01:55:53;14.30;99.90
20182;DHT22;10250;50.756;6.172;2022-08-30T01:57:53;14.40;99.90
20182;DHT22;10250;50.756;6.172;2022-08-30T01:59:54;14.50;99.90
20182;DHT22;10250;50.756;6.172;2022-08-30T02:01:55;14.60;99.90
20182;DHT22;10250;50.756;6.172;2022-08-30T02:03:55;14.70;99.90
20182;DHT22;10250;50.756;6.172;2022-08-30T02:05:56;14.70;99.90
20182;DHT22;10250;50.756;6.172;2022-08-30T02:07:57;14.70;99.90
20182;DHT22;10250;50.756;6.172;2022-08-30T02:09:57;14.70;99.90
20182;DHT22;10250;50.756;6.172;2022-08-30T02:11:58;14.70;99.90
20182;DHT22;10250;50.756;6.172;2022-08-30T02:13:58;14.80;99.90
20182;DHT22;10250;50.756;6.172;2022-08-30T02:15:59;14.70;99.90
20182;DHT22;10250;50.756;6.172;2022-08-30T02:18:00;14.70;99.90
20182;DHT22;10250;50.756;6.172;2022-08-30T02:20:00;14.70;99.90
20182;DHT22;10250;50.756;6.172;2022-08-30T02:22:01;14.80;99.90
20182;DHT22;10250;50.756;6.172;2022-08-30T02:24:02;14.80;99.90
20182;DHT22;10250;50.756;6.172;2022-08-30T02:26:03;14.70;99.90
20182;DHT22;10250;50.756;6.172;2022-08-30T02:28:05;14.70;99.90
20182;DHT22;10250;50.756;6.172;2022-08-30T02:30:07;14.50;99.90
20182;DHT22;10250;50.756;6.172;2022-08-30T02:32:08;14.40;99.90
20182;DHT22;10250;50.756;6.172;2022-08-30T02:34:08;14.30;99.90
20182;DHT22;10250;50.756;6.172;2022-08-30T02:36:09;14.40;99.90
20182;DHT22;10250;50.756;6.172;2022-08-30T02:38:10;14.30;99.90
20182;DHT22;10250;50.756;6.172;2022-08-30T02:40:11;14.30;99.90
20182;DHT22;10250;50.756;6.172;2022-08-30T02:42:12;14.30;99.90
20182;DHT22;10250;50.756;6.172;2022-08-30T02:44:12;14.20;99.90
20182;DHT22;10250;50.756;6.172;2022-08-30T02:46:13;14.20;99.90
20182;DHT22;10250;50.756;6.172;2022-08-30T02:48:14;14.20;99.90
20182;DHT22;10250;50.756;6.172;2022-08-30T02:50:15;14.10;99.90
20182;DHT22;10250;50.756;6.172;2022-08-30T02:52:16;14.20;99.90
20182;DHT22;10250;50.756;6.172;2022-08-30T02:54:16;14.20;99.90
20182;DHT22;10250;50.756;6.172;2022-08-30T02:56:19;14.20;99.90
20182;DHT22;10250;50.756;6.172;2022-08-30T02:58:20;14.30;99.90
20182;DHT22;10250;50.756;6.172;2022-08-30T03:00:20;14.30;99.90
20182;DHT22;10250;50.756;6.172;2022-08-30T03:02:21;14.30;99.90
20182;DHT22;10250;50.756;6.172;2022-08-30T03:04:22;14.30;99.90
20182;DHT22;10250;50.756;6.172;2022-08-30T03:06:23;14.40;99.90
20182;DHT22;10250;50.756;6.172;2022-08-30T03:08:23;14.50;99.90
20182;DHT22;10250;50.756;6.172;2022-08-30T03:10:24;14.50;99.90
20182;DHT22;10250;50.756;6.172;2022-08-30T03:12:26;14.50;99.90
20182;DHT22;10250;50.756;6.172;2022-08-30T03:14:27;14.40;99.90
20182;DHT22;10250;50.756;6.172;2022-08-30T03:16:28;14.30;99.90
20182;DHT22;10250;50.756;6.172;2022-08-30T03:18:29;14.20;99.90
20182;DHT22;10250;50.756;6.172;2022-08-30T03:20:29;14.20;99.90
20182;DHT22;10250;50.756;6.172;2022-08-30T03:22:30;14.10;99.90
20182;DHT22;10250;50.756;6.172;2022-08-30T03:24:31;14.20;99.90
20182;DHT22;10250;50.756;6.172;2022-08-30T03:26:32;14.10;99.90
20182;DHT22;10250;50.756;6.172;2022-08-30T03:28:33;14.10;99.90
20182;DHT22;10250;50.756;6.172;2022-08-30T03:30:34;14.20;99.90
20182;DHT22;10250;50.756;6.172;2022-08-30T03:32:35;14.20;99.90
20182;DHT22;10250;50.756;6.172;2022-08-30T03:34:35;14.20;99.90
20182;DHT22;10250;50.756;6.172;2022-08-30T03:36:39;14.20;99.90
20182;DHT22;10250;50.756;6.172;2022-08-30T03:38:40;14.10;99.90
20182;DHT22;10250;50.756;6.172;2022-08-30T03:40:41;14.10;99.90
20182;DHT22;10250;50.756;6.172;2022-08-30T03:42:42;14.10;99.90
20182;DHT22;10250;50.756;6.172;2022-08-30T03:44:43;14.40;99.90
20182;DHT22;10250;50.756;6.172;2022-08-30T03:46:43;14.40;99.90
20182;DHT22;10250;50.756;6.172;2022-08-30T03:48:44;14.20;99.90
20182;DHT22;10250;50.756;6.172;2022-08-30T03:50:45;14.10;99.90
20182;DHT22;10250;50.756;6.172;2022-08-30T03:52:45;14.10;99.90
20182;DHT22;10250;50.756;6.172;2022-08-30T03:54:46;14.10;99.90
20182;DHT22;10250;50.756;6.172;2022-08-30T03:56:46;14.10;99.90
20182;DHT22;10250;50.756;6.172;2022-08-30T03:58:47;14.10;99.90
20182;DHT22;10250;50.756;6.172;2022-08-30T04:00:48;14.10;99.90
20182;DHT22;10250;50.756;6.172;2022-08-30T04:02:48;14.10;99.90
20182;DHT22;10250;50.756;6.172;2022-08-30T04:04:49;14.20;99.90
20182;DHT22;10250;50.756;6.172;2022-08-30T04:06:50;14.20;99.90
20182;DHT22;10250;50.756;6.172;2022-08-30T04:08:50;14.30;99.90
20182;DHT22;10250;50.756;6.172;2022-08-30T04:10:52;14.60;99.90
20182;DHT22;10250;50.756;6.172;2022-08-30T04:12:52;14.70;99.90
20182;DHT22;10250;50.756;6.172;2022-08-30T04:14:53;14.80;99.90
20182;DHT22;10250;50.756;6.172;2022-08-30T04:16:54;14.80;99.90
20182;DHT22;10250;50.756;6.172;2022-08-30T04:18:54;14.80;99.90
20182;DHT22;10250;50.756;6.172;2022-08-30T04:20:55;15.00;99.90
20182;DHT22;10250;50.756;6.172;2022-08-30T04:22:56;14.90;99.90
20182;DHT22;10250;50.756;6.172;2022-08-30T04:24:56;14.90;99.90
20182;DHT22;10250;50.756;6.172;2022-08-30T04:26:57;14.90;99.90
20182;DHT22;10250;50.756;6.172;2022-08-30T04:28:57;14.90;99.90
20182;DHT22;10250;50.756;6.172;2022-08-30T04:30:58;14.90;99.90
20182;DHT22;10250;50.756;6.172;2022-08-30T04:32:59;14.90;99.90
20182;DHT22;10250;50.756;6.172;2022-08-30T04:35:00;14.90;99.90
20182;DHT22;10250;50.756;6.172;2022-08-30T04:37:00;14.90;99.90
20182;DHT22;10250;50.756;6.172;2022-08-30T04:39:01;14.90;99.90
20182;DHT22;10250;50.756;6.172;2022-08-30T04:41:11;14.90;99.90
20182;DHT22;10250;50.756;6.172;2022-08-30T04:43:12;15.00;99.90
20182;DHT22;10250;50.756;6.172;2022-08-30T04:45:14;15.00;99.90
20182;DHT22;10250;50.756;6.172;2022-08-30T04:47:15;15.00;99.90
20182;DHT22;10250;50.756;6.172;2022-08-30T04:49:17;15.00;99.90
20182;DHT22;10250;50.756;6.172;2022-08-30T04:51:18;15.00;99.90
20182;DHT22;10250;50.756;6.172;2022-08-30T04:53:18;15.00;99.90
20182;DHT22;10250;50.756;6.172;2022-08-30T04:55:19;15.00;99.90
20182;DHT22;10250;50.756;6.172;2022-08-30T04:57:21;15.10;99.90
20182;DHT22;10250;50.756;6.172;2022-08-30T04:59:22;15.00;99.90
20182;DHT22;10250;50.756;6.172;2022-08-30T05:01:27;15.20;99.90
20182;DHT22;10250;50.756;6.172;2022-08-30T05:03:28;15.20;99.90
20182;DHT22;10250;50.756;6.172;2022-08-30T05:05:29;15.20;99.90
20182;DHT22;10250;50.756;6.172;2022-08-30T05:07:41;15.20;99.90
20182;DHT22;10250;50.756;6.172;2022-08-30T05:09:42;15.20;99.90
20182;DHT22;10250;50.756;6.172;2022-08-30T05:11:42;15.30;99.90
20182;DHT22;10250;50.756;6.172;2022-08-30T05:13:44;15.40;99.90
20182;DHT22;10250;50.756;6.172;2022-08-30T05:15:45;15.50;99.90
20182;DHT22;10250;50.756;6.172;2022-08-30T05:17:45;15.50;99.90
20182;DHT22;10250;50.756;6.172;2022-08-30T05:19:46;15.40;99.90
20182;DHT22;10250;50.756;6.172;2022-08-30T05:21:46;15.40;99.90
20182;DHT22;10250;50.756;6.172;2022-08-30T05:23:47;15.50;99.90
20182;DHT22;10250;50.756;6.172;2022-08-30T05:25:49;15.50;99.90
20182;DHT22;10250;50.756;6.172;2022-08-30T05:27:50;15.60;99.90
20182;DHT22;10250;50.756;6.172;2022-08-30T05:29:51;15.60;99.90
20182;DHT22;10250;50.756;6.172;2022-08-30T05:31:52;15.70;99.90
20182;DHT22;10250;50.756;6.172;2022-08-30T05:33:54;15.60;99.90
20182;DHT22;10250;50.756;6.172;2022-08-30T05:35:55;15.60;99.90
20182;DHT22;10250;50.756;6.172;2022-08-30T05:37:55;15.70;99.90
20182;DHT22;10250;50.756;6.172;2022-08-30T05:39:56;15.70;99.90
20182;DHT22;10250;50.756;6.172;2022-08-30T05:41:58;15.80;99.90
20182;DHT22;10250;50.756;6.172;2022-08-30T05:44:00;15.70;99.90
20182;DHT22;10250;50.756;6.172;2022-08-30T05:46:03;15.80;99.90
20182;DHT22;10250;50.756;6.172;2022-08-30T05:48:05;15.80;99.90
20182;DHT22;10250;50.756;6.172;2022-08-30T05:50:07;15.80;99.90
20182;DHT22;10250;50.756;6.172;2022-08-30T05:52:08;15.70;99.90
20182;DHT22;10250;50.756;6.172;2022-08-30T05:54:09;15.70;99.90
20182;DHT22;10250;50.756;6.172;2022-08-30T05:56:12;15.60;99.90
20182;DHT22;10250;50.756;6.172;2022-08-30T05:58:13;15.50;99.90
20182;DHT22;10250;50.756;6.172;2022-08-30T06:00:15;15.60;99.90
20182;DHT22;10250;50.756;6.172;2022-08-30T06:02:19;15.50;99.90
20182;DHT22;10250;50.756;6.172;2022-08-30T06:04:20;15.50;99.90
20182;DHT22;10250;50.756;6.172;2022-08-30T06:06:20;15.60;99.90
20182;DHT22;10250;50.756;6.172;2022-08-30T06:08:21;15.60;99.90
20182;DHT22;10250;50.756;6.172;2022-08-30T06:10:22;15.70;99.90
20182;DHT22;10250;50.756;6.172;2022-08-30T06:12:22;15.70;99.90
20182;DHT22;10250;50.756;6.172;2022-08-30T06:14:23;15.70;99.90
20182;DHT22;10250;50.756;6.172;2022-08-30T06:16:26;15.70;99.90
20182;DHT22;10250;50.756;6.172;2022-08-30T06:18:26;15.70;99.90
20182;DHT22;10250;50.756;6.172;2022-08-30T06:20:27;15.70;99.90
20182;DHT22;10250;50.756;6.172;2022-08-30T06:22:27;15.70;99.90
20182;DHT22;10250;50.756;6.172;2022-08-30T06:24:28;15.70;99.90
20182;DHT22;10250;50.756;6.172;2022-08-30T06:26:30;15.70;99.90
20182;DHT22;10250;50.756;6.172;2022-08-30T06:28:31;15.80;99.90
20182;DHT22;10250;50.756;6.172;2022-08-30T06:30:32;15.80;99.90
20182;DHT22;10250;50.756;6.172;2022-08-30T06:32:33;15.90;99.90
20182;DHT22;10250;50.756;6.172;2022-08-30T06:34:34;16.20;99.90
20182;DHT22;10250;50.756;6.172;2022-08-30T06:36:35;16.30;99.90
20182;DHT22;10250;50.756;6.172;2022-08-30T06:38:36;16.50;99.90
20182;DHT22;10250;50.756;6.172;2022-08-30T06:40:37;16.70;99.90
20182;DHT22;10250;50.756;6.172;2022-08-30T06:42:37;16.90;99.90
20182;DHT22;10250;50.756;6.172;2022-08-30T06:44:38;17.10;99.90
20182;DHT22;10250;50.756;6.172;2022-08-30T06:46:39;17.30;99.90
20182;DHT22;10250;50.756;6.172;2022-08-30T06:48:40;17.40;99.90
20182;DHT22;10250;50.756;6.172;2022-08-30T06:50:40;17.60;99.90
20182;DHT22;10250;50.756;6.172;2022-08-30T06:52:42;17.60;99.90
20182;DHT22;10250;50.756;6.172;2022-08-30T06:54:43;17.70;99.90
20182;DHT22;10250;50.756;6.172;2022-08-30T06:56:44;17.80;99.90
20182;DHT22;10250;50.756;6.172;2022-08-30T06:58:46;17.80;99.90
20182;DHT22;10250;50.756;6.172;2022-08-30T07:00:47;17.80;99.90
20182;DHT22;10250;50.756;6.172;2022-08-30T07:02:47;17.90;99.90
20182;DHT22;10250;50.756;6.172;2022-08-30T07:04:48;18.10;99.90
20182;DHT22;10250;50.756;6.172;2022-08-30T07:06:49;18.20;99.90
20182;DHT22;10250;50.756;6.172;2022-08-30T07:08:50;18.20;99.90
20182;DHT22;10250;50.756;6.172;2022-08-30T07:10:52;18.40;99.90
20182;DHT22;10250;50.756;6.172;2022-08-30T07:12:55;18.50;99.90
20182;DHT22;10250;50.756;6.172;2022-08-30T07:14:56;18.70;99.90
20182;DHT22;10250;50.756;6.172;2022-08-30T07:16:56;18.70;99.90
20182;DHT22;10250;50.756;6.172;2022-08-30T07:18:57;18.90;99.90
20182;DHT22;10250;50.756;6.172;2022-08-30T07:21:08;19.10;99.90
20182;DHT22;10250;50.756;6.172;2022-08-30T07:23:10;19.20;99.90
20182;DHT22;10250;50.756;6.172;2022-08-30T07:25:10;19.10;99.90
20182;DHT22;10250;50.756;6.172;2022-08-30T07:27:11;19.20;99.90
20182;DHT22;10250;50.756;6.172;2022-08-30T07:29:12;19.20;99.90
20182;DHT22;10250;50.756;6.172;2022-08-30T07:31:14;19.40;99.90
20182;DHT22;10250;50.756;6.172;2022-08-30T07:33:15;19.60;99.90
20182;DHT22;10250;50.756;6.172;2022-08-30T07:35:16;19.70;99.90
20182;DHT22;10250;50.756;6.172;2022-08-30T07:37:16;19.50;99.90
20182;DHT22;10250;50.756;6.172;2022-08-30T07:39:17;19.40;99.90
20182;DHT22;10250;50.756;6.172;2022-08-30T07:41:27;19.50;99.90
20182;DHT22;10250;50.756;6.172;2022-08-30T07:43:29;19.70;99.90
20182;DHT22;10250;50.756;6.172;2022-08-30T07:45:30;19.60;99.90
20182;DHT22;10250;50.756;6.172;2022-08-30T07:47:31;19.50;99.90
20182;DHT22;10250;50.756;6.172;2022-08-30T07:49:32;19.40;99.90
20182;DHT22;10250;50.756;6.172;2022-08-30T07:51:32;19.30;99.90
20182;DHT22;10250;50.756;6.172;2022-08-30T07:53:33;19.30;99.90
20182;DHT22;10250;50.756;6.172;2022-08-30T07:55:33;19.10;99.90
20182;DHT22;10250;50.756;6.172;2022-08-30T07:57:34;19.20;99.90
20182;DHT22;10250;50.756;6.172;2022-08-30T07:59:35;19.40;99.90
20182;DHT22;10250;50.756;6.172;2022-08-30T08:01:35;19.60;99.90
20182;DHT22;10250;50.756;6.172;2022-08-30T08:03:37;19.80;99.90
20182;DHT22;10250;50.756;6.172;2022-08-30T08:05:41;19.80;99.90
20182;DHT22;10250;50.756;6.172;2022-08-30T08:07:42;19.80;99.90
20182;DHT22;10250;50.756;6.172;2022-08-30T08:09:43;20.00;99.90
20182;DHT22;10250;50.756;6.172;2022-08-30T08:11:43;20.10;99.90
20182;DHT22;10250;50.756;6.172;2022-08-30T08:13:45;20.00;99.90
20182;DHT22;10250;50.756;6.172;2022-08-30T08:15:46;19.90;99.90
20182;DHT22;10250;50.756;6.172;2022-08-30T08:17:47;20.00;99.90
20182;DHT22;10250;50.756;6.172;2022-08-30T08:19:47;20.20;99.90
20182;DHT22;10250;50.756;6.172;2022-08-30T08:21:48;20.50;99.90
20182;DHT22;10250;50.756;6.172;2022-08-30T08:23:49;20.60;99.90
20182;DHT22;10250;50.756;6.172;2022-08-30T08:25:50;20.40;99.90
20182;DHT22;10250;50.756;6.172;2022-08-30T08:27:51;20.50;99.90
20182;DHT22;10250;50.756;6.172;2022-08-30T08:29:51;20.30;99.90
20182;DHT22;10250;50.756;6.172;2022-08-30T08:31:53;20.40;99.90
20182;DHT22;10250;50.756;6.172;2022-08-30T08:33:54;20.50;99.90
20182;DHT22;10250;50.756;6.172;2022-08-30T08:35:55;20.70;99.90
20182;DHT22;10250;50.756;6.172;2022-08-30T08:37:56;20.50;99.90
20182;DHT22;10250;50.756;6.172;2022-08-30T08:39:56;20.60;99.90
20182;DHT22;10250;50.756;6.172;2022-08-30T08:44:06;20.60;99.90
20182;DHT22;10250;50.756;6.172;2022-08-30T08:46:30;20.70;99.90
20182;DHT22;10250;50.756;6.172;2022-08-30T08:50:38;20.80;99.90
20182;DHT22;10250;50.756;6.172;2022-08-30T08:55:25;21.00;99.90
20182;DHT22;10250;50.756;6.172;2022-08-30T08:57:32;21.10;99.90
20182;DHT22;10250;50.756;6.172;2022-08-30T08:59:33;21.20;99.90
20182;DHT22;10250;50.756;6.172;2022-08-30T09:01:34;21.40;99.90
20182;DHT22;10250;50.756;6.172;2022-08-30T09:03:35;21.20;99.90
20182;DHT22;10250;50.756;6.172;2022-08-30T09:05:38;21.00;99.90
20182;DHT22;10250;50.756;6.172;2022-08-30T09:07:41;21.10;99.90
20182;DHT22;10250;50.756;6.172;2022-08-30T09:09:43;21.30;99.90
20182;DHT22;10250;50.756;6.172;2022-08-30T09:11:45;21.40;99.90
20182;DHT22;10250;50.756;6.172;2022-08-30T09:13:47;21.60;99.90
20182;DHT22;10250;50.756;6.172;2022-08-30T09:15:47;21.40;99.90
20182;DHT22;10250;50.756;6.172;2022-08-30T09:18:08;21.50;99.90
20182;DHT22;10250;50.756;6.172;2022-08-30T09:20:08;21.50;99.90
20182;DHT22;10250;50.756;6.172;2022-08-30T09:25:18;21.90;99.90
20182;DHT22;10250;50.756;6.172;2022-08-30T09:27:36;21.90;99.90
20182;DHT22;10250;50.756;6.172;2022-08-30T09:29:49;21.80;99.90
20182;DHT22;10250;50.756;6.172;2022-08-30T09:31:51;22.10;99.90
20182;DHT22;10250;50.756;6.172;2022-08-30T09:34:05;21.80;99.90
20182;DHT22;10250;50.756;6.172;2022-08-30T09:36:27;21.90;99.90
20182;DHT22;10250;50.756;6.172;2022-08-30T09:38:30;22.10;99.90
20182;DHT22;10250;50.756;6.172;2022-08-30T09:40:47;22.10;99.90
20182;DHT22;10250;50.756;6.172;2022-08-30T09:42:59;22.00;99.90
20182;DHT22;10250;50.756;6.172;2022-08-30T09:45:00;22.00;99.90
20182;DHT22;10250;50.756;6.172;2022-08-30T09:47:19;22.10;99.90
20182;DHT22;10250;50.756;6.172;2022-08-30T09:49:39;22.00;99.90
20182;DHT22;10250;50.756;6.172;2022-08-30T09:51:54;22.10;99.90
20182;DHT22;10250;50.756;6.172;2022-08-30T10:01:28;21.80;99.90
20182;DHT22;10250;50.756;6.172;2022-08-30T10:07:55;22.20;99.90
20182;DHT22;10250;50.756;6.172;2022-08-30T10:12:19;22.20;99.90
20182;DHT22;10250;50.756;6.172;2022-08-30T10:21:51;22.80;99.90
20182;DHT22;10250;50.756;6.172;2022-08-30T10:24:00;22.60;99.90
20182;DHT22;10250;50.756;6.172;2022-08-30T10:26:06;22.60;99.90
20182;DHT22;10250;50.756;6.172;2022-08-30T10:30:33;22.50;99.90
20182;DHT22;10250;50.756;6.172;2022-08-30T10:34:53;22.80;99.90
20182;DHT22;10250;50.756;6.172;2022-08-30T10:37:00;22.90;99.90
20182;DHT22;10250;50.756;6.172;2022-08-30T10:39:03;22.80;99.90
20182;DHT22;10250;50.756;6.172;2022-08-30T10:41:15;22.60;99.90
20182;DHT22;10250;50.756;6.172;2022-08-30T10:45:59;22.50;99.90
20182;DHT22;10250;50.756;6.172;2022-08-30T10:48:21;22.60;99.90
20182;DHT22;10250;50.756;6.172;2022-08-30T10:50:31;22.60;99.90
20182;DHT22;10250;50.756;6.172;2022-08-30T10:52:36;22.80;99.90
20182;DHT22;10250;50.756;6.172;2022-08-30T10:54:42;23.00;99.90
20182;DHT22;10250;50.756;6.172;2022-08-30T10:56:49;22.80;99.90
20182;DHT22;10250;50.756;6.172;2022-08-30T10:58:51;22.70;99.90
20182;DHT22;10250;50.756;6.172;2022-08-30T11:08:18;23.10;99.90
20182;DHT22;10250;50.756;6.172;2022-08-30T11:10:38;23.20;99.90
20182;DHT22;10250;50.756;6.172;2022-08-30T11:14:53;23.20;99.90
20182;DHT22;10250;50.756;6.172;2022-08-30T11:16:55;23.40;99.90
20182;DHT22;10250;50.756;6.172;2022-08-30T11:18:58;23.50;99.90
20182;DHT22;10250;50.756;6.172;2022-08-30T11:21:19;23.70;99.90
20182;DHT22;10250;50.756;6.172;2022-08-30T11:27:54;23.40;99.90
20182;DHT22;10250;50.756;6.172;2022-08-30T11:32:57;23.30;99.90
20182;DHT22;10250;50.756;6.172;2022-08-30T11:34:59;23.60;99.90
20182;DHT22;10250;50.756;6.172;2022-08-30T11:37:01;23.70;99.90
20182;DHT22;10250;50.756;6.172;2022-08-30T11:39:06;23.90;99.90
20182;DHT22;10250;50.756;6.172;2022-08-30T11:41:10;23.90;99.90
20182;DHT22;10250;50.756;6.172;2022-08-30T11:43:48;23.70;99.90
20182;DHT22;10250;50.756;6.172;2022-08-30T11:45:49;23.80;99.90
20182;DHT22;10250;50.756;6.172;2022-08-30T11:50:06;23.80;99.90
20182;DHT22;10250;50.756;6.172;2022-08-30T11:54:34;24.10;99.90
20182;DHT22;10250;50.756;6.172;2022-08-30T11:56:55;24.00;99.90
20182;DHT22;10250;50.756;6.172;2022-08-30T11:59:01;24.00;99.90
20182;DHT22;10250;50.756;6.172;2022-08-30T12:03:30;23.80;99.90
20182;DHT22;10250;50.756;6.172;2022-08-30T12:07:57;24.10;99.90
20182;DHT22;10250;50.756;6.172;2022-08-30T12:09:59;24.10;99.90
20182;DHT22;10250;50.756;6.172;2022-08-30T12:16:39;24.00;99.90
20182;DHT22;10250;50.756;6.172;2022-08-30T12:19:18;24.20;99.90
20182;DHT22;10250;50.756;6.172;2022-08-30T12:25:33;24.40;99.90
20182;DHT22;10250;50.756;6.172;2022-08-30T12:27:33;24.60;99.90
20182;DHT22;10250;50.756;6.172;2022-08-30T12:29:34;24.30;99.90
20182;DHT22;10250;50.756;6.172;2022-08-30T12:32:03;24.40;99.90
20182;DHT22;10250;50.756;6.172;2022-08-30T12:34:07;24.40;99.90
20182;DHT22;10250;50.756;6.172;2022-08-30T12:36:14;24.60;99.90
20182;DHT22;10250;50.756;6.172;2022-08-30T12:38:19;24.40;99.90
20182;DHT22;10250;50.756;6.172;2022-08-30T12:40:22;24.50;99.90
20182;DHT22;10250;50.756;6.172;2022-08-30T12:42:24;24.70;99.90
20182;DHT22;10250;50.756;6.172;2022-08-30T12:44:26;24.60;99.90
20182;DHT22;10250;50.756;6.172;2022-08-30T12:46:28;24.80;99.90
20182;DHT22;10250;50.756;6.172;2022-08-30T12:48:34;24.60;99.90
20182;DHT22;10250;50.756;6.172;2022-08-30T12:50:47;24.70;99.90
20182;DHT22;10250;50.756;6.172;2022-08-30T12:53:06;24.70;99.90
20182;DHT22;10250;50.756;6.172;2022-08-30T12:55:18;23.90;99.90
20182;DHT22;10250;50.756;6.172;2022-08-30T12:59:55;24.90;99.90
20182;DHT22;10250;50.756;6.172;2022-08-30T13:02:13;24.70;99.90
20182;DHT22;10250;50.756;6.172;2022-08-30T13:04:25;24.20;99.90
20182;DHT22;10250;50.756;6.172;2022-08-30T13:06:50;24.70;99.90
20182;DHT22;10250;50.756;6.172;2022-08-30T13:08:51;25.00;99.90
20182;DHT22;10250;50.756;6.172;2022-08-30T13:10:59;24.90;99.90
20182;DHT22;10250;50.756;6.172;2022-08-30T13:13:04;24.90;99.90
20182;DHT22;10250;50.756;6.172;2022-08-30T13:15:28;24.50;99.90
20182;DHT22;10250;50.756;6.172;2022-08-30T13:17:31;24.40;99.90
20182;DHT22;10250;50.756;6.172;2022-08-30T13:19:36;24.40;99.90
20182;DHT22;10250;50.756;6.172;2022-08-30T13:21:49;24.60;99.90
20182;DHT22;10250;50.756;6.172;2022-08-30T13:23:55;24.90;99.90
20182;DHT22;10250;50.756;6.172;2022-08-30T13:25:56;24.90;99.90
20182;DHT22;10250;50.756;6.172;2022-08-30T13:27:58;25.10;99.90
20182;DHT22;10250;50.756;6.172;2022-08-30T13:30:11;24.80;99.90
20182;DHT22;10250;50.756;6.172;2022-08-30T13:32:13;24.80;99.90
20182;DHT22;10250;50.756;6.172;2022-08-30T13:34:14;23.90;99.90
20182;DHT22;10250;50.756;6.172;2022-08-30T13:36:29;23.70;99.90
20182;DHT22;10250;50.756;6.172;2022-08-30T13:38:30;23.30;99.90
20182;DHT22;10250;50.756;6.172;2022-08-30T13:40:30;23.40;99.90
20182;DHT22;10250;50.756;6.172;2022-08-30T13:42:31;23.80;99.90
20182;DHT22;10250;50.756;6.172;2022-08-30T13:44:32;24.30;99.90
20182;DHT22;10250;50.756;6.172;2022-08-30T13:46:33;23.90;99.90
20182;DHT22;10250;50.756;6.172;2022-08-30T13:48:33;24.20;99.90
20182;DHT22;10250;50.756;6.172;2022-08-30T13:50:34;24.50;99.90
20182;DHT22;10250;50.756;6.172;2022-08-30T13:52:35;24.70;99.90
20182;DHT22;10250;50.756;6.172;2022-08-30T13:54:35;24.80;99.90
20182;DHT22;10250;50.756;6.172;2022-08-30T13:56:36;24.90;99.90
20182;DHT22;10250;50.756;6.172;2022-08-30T13:58:36;25.00;99.90
20182;DHT22;10250;50.756;6.172;2022-08-30T14:00:38;25.10;99.90
20182;DHT22;10250;50.756;6.172;2022-08-30T14:02:39;24.90;99.90
20182;DHT22;10250;50.756;6.172;2022-08-30T14:04:41;24.80;99.90
20182;DHT22;10250;50.756;6.172;2022-08-30T14:06:42;24.70;99.90
20182;DHT22;10250;50.756;6.172;2022-08-30T14:08:43;24.20;99.90
20182;DHT22;10250;50.756;6.172;2022-08-30T14:10:43;24.00;99.90
20182;DHT22;10250;50.756;6.172;2022-08-30T14:12:44;24.50;99.90
20182;DHT22;10250;50.756;6.172;2022-08-30T14:14:45;24.60;99.90